createdAt,value
2022-08-28T00:02:30.217Z,22.00
2022-08-28T00:05:24.674Z,19.70
2022-08-28T00:08:10.621Z,21.20
2022-08-28T00:10:59.185Z,21.80
2022-08-28T00:13:45.071Z,20.90
2022-08-28T00:16:51.225Z,22.60
2022-08-28T00:19:43.089Z,20.90
2022-08-28T00:22:29.581Z,22.00
2022-08-28T00:25:28.333Z,21.50
2022-08-28T00:28:23.793Z,23.10
2022-08-28T00:31:39.643Z,22.20
2022-08-28T00:34:32.885Z,23.90
2022-08-28T00:37:19.730Z,22.60
2022-08-28T00:40:32.847Z,23.90
2022-08-28T00:44:15.601Z,24.00
2022-08-28T00:47:01.532Z,22.00
2022-08-28T00:49:56.529Z,23.30
2022-08-28T00:52:43.900Z,22.80
2022-08-28T00:55:35.315Z,24.40
2022-08-28T00:58:29.560Z,22.50
2022-08-28T01:01:16.732Z,21.20
2022-08-28T01:04:16.415Z,21.50
2022-08-28T01:07:15.133Z,23.70
2022-08-28T01:10:03.855Z,21.80
2022-08-28T01:13:19.175Z,20.20
2022-08-28T01:16:08.143Z,19.60
2022-08-28T01:18:55.154Z,20.90
2022-08-28T01:22:26.159Z,19.60
2022-08-28T01:25:18.749Z,19.30
2022-08-28T01:28:16.738Z,19.50
2022-08-28T01:31:20.687Z,18.30
2022-08-28T01:34:09.815Z,18.30
2022-08-28T01:37:13.316Z,19.20
2022-08-28T01:39:58.924Z,20.40
2022-08-28T01:43:07.165Z,18.80
2022-08-28T01:46:02.314Z,18.10
2022-08-28T01:48:49.265Z,20.50
2022-08-28T01:51:41.187Z,18.10
2022-08-28T01:54:25.923Z,21.00
2022-08-28T01:57:16.511Z,21.00
2022-08-28T02:00:11.138Z,21.60
2022-08-28T02:02:57.478Z,21.50
2022-08-28T02:06:01.323Z,20.60
2022-08-28T02:08:49.949Z,21.20
2022-08-28T02:11:58.151Z,20.90
2022-08-28T02:14:44.450Z,21.70
2022-08-28T02:17:30.508Z,22.20
2022-08-28T02:20:24.632Z,22.90
2022-08-28T02:23:19.171Z,22.50
2022-08-28T02:26:12.216Z,20.10
2022-08-28T02:29:04.912Z,21.60
2022-08-28T02:32:08.212Z,21.80
2022-08-28T02:34:54.960Z,21.90
2022-08-28T02:37:49.505Z,21.90
2022-08-28T02:40:41.668Z,21.60
2022-08-28T02:43:27.987Z,21.00
2022-08-28T02:46:31.977Z,19.80
2022-08-28T02:49:17.785Z,20.30
2022-08-28T02:52:23.663Z,21.80
2022-08-28T02:55:15.532Z,21.90
2022-08-28T02:58:10.455Z,20.50
2022-08-28T03:01:16.886Z,21.00
2022-08-28T03:04:06.451Z,21.10
2022-08-28T03:06:52.908Z,21.00
2022-08-28T03:09:46.595Z,21.40
2022-08-28T03:13:01.687Z,22.20
2022-08-28T03:15:47.631Z,21.90
2022-08-28T03:18:38.584Z,21.50
2022-08-28T03:21:44.524Z,20.50
2022-08-28T03:24:30.643Z,21.00
2022-08-28T03:27:13.944Z,20.70
2022-08-28T03:30:02.996Z,21.30
2022-08-28T03:32:55.196Z,21.10
2022-08-28T03:38:43.790Z,20.70
2022-08-28T03:41:32.142Z,21.20
2022-08-28T03:44:24.351Z,21.50
2022-08-28T03:47:12.316Z,21.60
2022-08-28T03:50:02.195Z,21.80
2022-08-28T03:52:49.029Z,22.50
2022-08-28T03:55:52.886Z,22.50
2022-08-28T03:58:37.047Z,22.10
2022-08-28T04:01:28.051Z,23.40
2022-08-28T04:04:14.989Z,22.60
2022-08-28T04:07:08.702Z,23.10
2022-08-28T04:09:59.092Z,24.50
2022-08-28T04:12:56.190Z,23.30
2022-08-28T04:15:57.217Z,25.40
2022-08-28T04:18:43.908Z,25.00
2022-08-28T04:21:42.726Z,26.80
2022-08-28T04:24:48.397Z,27.50
2022-08-28T04:27:46.624Z,25.60
2022-08-28T04:30:50.431Z,25.70
2022-08-28T04:33:43.694Z,27.80
2022-08-28T04:36:39.609Z,27.50
2022-08-28T04:39:37.174Z,26.40
2022-08-28T04:45:54.440Z,27.40
2022-08-28T04:48:53.276Z,27.80
2022-08-28T04:51:48.713Z,28.50
2022-08-28T04:54:38.937Z,29.70
2022-08-28T04:57:24.265Z,30.00
2022-08-28T05:00:14.414Z,29.00
2022-08-28T05:03:11.573Z,30.10
2022-08-28T05:05:57.679Z,29.40
2022-08-28T05:08:46.601Z,28.70
2022-08-28T05:11:35.340Z,29.20
2022-08-28T05:14:21.946Z,29.80
2022-08-28T05:17:18.217Z,31.00
2022-08-28T05:20:04.541Z,29.40
2022-08-28T05:22:50.516Z,31.10
2022-08-28T05:25:51.732Z,32.00
2022-08-28T05:28:55.554Z,32.40
2022-08-28T05:31:41.592Z,32.50
2022-08-28T05:34:27.181Z,31.60
2022-08-28T05:37:15.465Z,30.30
2022-08-28T05:40:04.833Z,30.00
2022-08-28T05:42:49.303Z,29.30
2022-08-28T05:45:32.553Z,31.50
2022-08-28T05:48:18.291Z,31.70
2022-08-28T05:51:14.704Z,31.40
2022-08-28T05:54:02.342Z,29.20
2022-08-28T05:56:59.595Z,30.20
2022-08-28T05:59:42.743Z,32.10
2022-08-28T06:02:27.554Z,31.70
2022-08-28T06:05:41.870Z,31.90
2022-08-28T06:08:25.310Z,33.20
2022-08-28T06:11:11.246Z,30.90
2022-08-28T06:13:57.833Z,31.30
2022-08-28T06:16:48.205Z,31.80
2022-08-28T06:19:41.035Z,29.80
2022-08-28T06:22:27.758Z,29.80
2022-08-28T06:25:16.011Z,30.80
2022-08-28T06:27:59.027Z,28.70
2022-08-28T06:31:08.915Z,28.40
2022-08-28T06:33:50.624Z,28.60
2022-08-28T06:36:42.702Z,27.90
2022-08-28T06:39:28.621Z,29.10
2022-08-28T06:42:21.621Z,28.20
2022-08-28T06:45:07.404Z,27.60
2022-08-28T06:47:55.826Z,28.10
2022-08-28T06:50:41.792Z,27.40
2022-08-28T06:53:31.465Z,25.40
2022-08-28T06:56:26.340Z,25.70
2022-08-28T06:59:12.507Z,25.60
2022-08-28T07:01:55.957Z,25.50
2022-08-28T07:04:39.260Z,25.80
2022-08-28T07:07:31.811Z,25.00
2022-08-28T07:10:18.936Z,24.00
2022-08-28T07:13:06.540Z,25.10
2022-08-28T07:16:05.210Z,24.20
2022-08-28T07:18:48.509Z,23.80
2022-08-28T07:21:38.317Z,23.90
2022-08-28T07:24:23.463Z,21.70
2022-08-28T07:27:09.725Z,21.60
2022-08-28T07:29:55.633Z,20.60
2022-08-28T07:32:49.895Z,20.10
2022-08-28T07:35:33.217Z,20.30
2022-08-28T07:38:17.221Z,21.50
2022-08-28T07:41:00.561Z,20.30
2022-08-28T07:44:02.570Z,19.50
2022-08-28T07:46:46.086Z,20.50
2022-08-28T07:49:29.084Z,19.80
2022-08-28T07:52:12.547Z,19.40
2022-08-28T07:54:57.556Z,19.00
2022-08-28T07:57:40.908Z,19.40
2022-08-28T08:00:26.534Z,17.70
2022-08-28T08:03:09.701Z,18.10
2022-08-28T08:05:56.343Z,17.90
2022-08-28T08:08:39.896Z,17.30
2022-08-28T08:11:27.909Z,16.00
2022-08-28T08:14:17.090Z,16.60
2022-08-28T08:17:11.546Z,16.30
2022-08-28T08:19:55.100Z,16.60
2022-08-28T08:22:38.454Z,15.70
2022-08-28T08:25:23.844Z,14.40
2022-08-28T08:28:09.699Z,16.80
2022-08-28T08:31:07.575Z,15.30
2022-08-28T08:33:54.937Z,15.90
2022-08-28T08:36:41.148Z,15.10
2022-08-28T08:39:24.449Z,17.00
2022-08-28T08:42:22.087Z,15.40
2022-08-28T08:45:11.262Z,14.70
2022-08-28T08:47:56.353Z,15.20
2022-08-28T08:50:50.734Z,14.50
2022-08-28T08:53:45.140Z,12.90
2022-08-28T08:56:34.474Z,13.10
2022-08-28T08:59:27.313Z,13.40
2022-08-28T09:05:11.799Z,13.20
2022-08-28T09:07:59.583Z,14.10
2022-08-28T09:10:50.849Z,13.70
2022-08-28T09:14:20.540Z,12.60
2022-08-28T09:17:07.209Z,13.40
2022-08-28T09:19:50.080Z,13.20
2022-08-28T09:22:33.106Z,13.10
2022-08-28T09:25:45.312Z,12.10
2022-08-28T09:31:37.861Z,13.90
2022-08-28T09:34:26.311Z,12.30
2022-08-28T09:37:25.760Z,14.40
2022-08-28T09:40:16.672Z,12.60
2022-08-28T09:43:27.508Z,12.90
2022-08-28T09:46:27.793Z,13.30
2022-08-28T09:49:13.735Z,12.80
2022-08-28T09:52:01.753Z,12.40
2022-08-28T09:54:45.573Z,13.10
2022-08-28T09:57:28.462Z,12.70
2022-08-28T10:00:12.045Z,13.90
2022-08-28T10:03:15.044Z,13.70
2022-08-28T10:06:25.533Z,13.10
2022-08-28T10:09:14.404Z,12.70
2022-08-28T10:12:31.788Z,13.30
2022-08-28T10:15:23.612Z,13.20
2022-08-28T10:18:18.046Z,12.30
2022-08-28T10:21:01.341Z,13.30
2022-08-28T10:24:03.171Z,13.00
2022-08-28T10:27:04.615Z,13.30
2022-08-28T10:30:11.165Z,12.20
2022-08-28T10:33:44.384Z,13.50
2022-08-28T10:36:35.782Z,12.30
2022-08-28T10:39:37.749Z,13.30
2022-08-28T10:42:36.604Z,12.90
2022-08-28T10:45:24.413Z,13.20
2022-08-28T10:48:17.621Z,13.80
2022-08-28T10:51:06.737Z,14.40
2022-08-28T10:53:58.747Z,12.60
2022-08-28T10:59:30.662Z,14.70
2022-08-28T11:02:16.896Z,14.50
2022-08-28T11:05:00.226Z,14.60
2022-08-28T11:07:51.637Z,13.70
2022-08-28T11:10:38.501Z,13.60
2022-08-28T11:13:41.937Z,14.40
2022-08-28T11:16:50.331Z,13.70
2022-08-28T11:19:47.049Z,14.10
2022-08-28T11:22:43.136Z,13.30
2022-08-28T11:25:59.028Z,14.20
2022-08-28T11:28:47.337Z,13.10
2022-08-28T11:31:33.607Z,13.50
2022-08-28T11:34:54.540Z,13.40
2022-08-28T11:37:46.767Z,14.60
2022-08-28T11:40:32.825Z,14.60
2022-08-28T11:43:16.187Z,14.10
2022-08-28T11:46:00.207Z,13.30
2022-08-28T11:48:49.458Z,12.90
2022-08-28T11:51:44.881Z,12.80
2022-08-28T11:54:50.472Z,13.60
2022-08-28T12:01:02.236Z,12.80
2022-08-28T12:03:58.421Z,12.90
2022-08-28T12:06:54.593Z,12.50
2022-08-28T12:09:49.205Z,14.30
2022-08-28T12:12:47.299Z,12.50
2022-08-28T12:15:30.445Z,12.30
2022-08-28T12:18:15.425Z,12.20
2022-08-28T12:21:05.019Z,13.20
2022-08-28T12:24:09.725Z,12.00
2022-08-28T12:26:57.002Z,11.60
2022-08-28T12:30:08.301Z,13.20
2022-08-28T12:32:55.775Z,13.40
2022-08-28T12:35:39.700Z,12.50
2022-08-28T12:38:23.625Z,11.60
2022-08-28T12:41:17.022Z,11.80
2022-08-28T12:44:01.490Z,12.70
2022-08-28T12:46:49.138Z,12.10
2022-08-28T12:49:36.033Z,11.80
2022-08-28T12:52:25.584Z,12.30
2022-08-28T12:55:09.206Z,11.30
2022-08-28T12:57:53.376Z,10.70
2022-08-28T13:00:37.214Z,10.90
2022-08-28T13:03:21.449Z,10.40
2022-08-28T13:06:09.165Z,9.40
2022-08-28T13:08:58.037Z,10.10
2022-08-28T13:11:47.878Z,8.80
2022-08-28T13:14:38.224Z,8.90
2022-08-28T13:17:43.261Z,8.80
2022-08-28T13:20:34.835Z,8.00
2022-08-28T13:23:35.958Z,8.10
2022-08-28T13:26:25.307Z,8.10
2022-08-28T13:29:22.050Z,9.00
2022-08-28T13:32:15.265Z,9.00
2022-08-28T13:35:28.257Z,10.10
2022-08-28T13:38:14.099Z,8.80
2022-08-28T13:41:00.123Z,8.70
2022-08-28T13:43:46.220Z,8.70
2022-08-28T13:46:32.598Z,9.50
2022-08-28T13:49:15.926Z,8.70
2022-08-28T13:52:01.175Z,8.80
2022-08-28T13:54:45.319Z,8.50
2022-08-28T13:57:28.558Z,9.00
2022-08-28T14:00:13.055Z,8.50
2022-08-28T14:03:16.010Z,9.10
2022-08-28T14:05:59.069Z,8.80
2022-08-28T14:08:43.790Z,8.40
2022-08-28T14:11:26.624Z,8.30
2022-08-28T14:14:10.455Z,7.50
2022-08-28T14:16:54.703Z,7.40
2022-08-28T14:19:37.804Z,8.30
2022-08-28T14:22:20.606Z,8.60
2022-08-28T14:25:04.729Z,8.00
2022-08-28T14:27:47.959Z,8.00
2022-08-28T14:30:31.094Z,7.00
2022-08-28T14:33:16.907Z,6.90
2022-08-28T14:35:59.913Z,6.40
2022-08-28T14:38:45.165Z,6.50
2022-08-28T14:41:29.008Z,7.00
2022-08-28T14:44:12.276Z,6.30
2022-08-28T14:46:57.233Z,6.40
2022-08-28T14:49:40.931Z,6.10
2022-08-28T14:52:24.056Z,5.90
2022-08-28T14:55:07.465Z,5.40
2022-08-28T14:57:54.184Z,5.40
2022-08-28T15:00:46.212Z,4.80
2022-08-28T15:06:11.976Z,5.50
2022-08-28T15:08:55.283Z,5.10
2022-08-28T15:11:39.389Z,5.50
2022-08-28T15:14:22.394Z,5.90
2022-08-28T15:17:06.166Z,5.60
2022-08-28T15:19:49.170Z,5.80
2022-08-28T15:22:34.079Z,5.70
2022-08-28T15:25:17.886Z,5.60
2022-08-28T15:28:01.051Z,5.50
2022-08-28T15:30:46.214Z,5.10
2022-08-28T15:33:29.175Z,4.90
2022-08-28T15:36:13.023Z,5.50
2022-08-28T15:39:14.513Z,5.40
2022-08-28T15:41:57.944Z,5.30
2022-08-28T15:44:41.309Z,5.40
2022-08-28T15:47:24.765Z,4.80
2022-08-28T15:50:08.378Z,4.50
2022-08-28T15:52:54.604Z,4.70
2022-08-28T15:55:47.516Z,5.20
2022-08-28T15:58:31.598Z,5.50
2022-08-28T16:01:14.790Z,5.40
2022-08-28T16:03:57.814Z,4.90
2022-08-28T16:06:42.065Z,5.00
2022-08-28T16:09:25.054Z,5.10
2022-08-28T16:12:08.034Z,5.10
2022-08-28T16:14:51.375Z,5.00
2022-08-28T16:17:34.308Z,5.00
2022-08-28T16:20:17.426Z,5.30
2022-08-28T16:23:00.368Z,5.90
2022-08-28T16:25:43.305Z,5.40
2022-08-28T16:31:29.406Z,5.50
2022-08-28T16:34:12.702Z,5.60
2022-08-28T16:35:55.103Z,6.20
2022-08-28T16:36:55.762Z,6.00
2022-08-28T16:39:39.164Z,6.20
2022-08-28T16:42:23.993Z,6.40
2022-08-28T16:45:08.044Z,5.90
2022-08-28T16:47:51.462Z,5.60
2022-08-28T16:50:34.546Z,5.90
2022-08-28T16:53:27.009Z,6.10
2022-08-28T16:56:12.807Z,5.40
2022-08-28T16:58:59.427Z,5.70
2022-08-28T17:01:44.674Z,5.50
2022-08-28T17:04:27.746Z,5.90
2022-08-28T17:07:10.775Z,5.40
2022-08-28T17:09:53.766Z,5.10
2022-08-28T17:12:36.849Z,5.20
2022-08-28T17:15:20.166Z,4.60
2022-08-28T17:18:03.172Z,4.60
2022-08-28T17:21:04.620Z,4.30
2022-08-28T17:23:47.729Z,4.60
2022-08-28T17:26:30.674Z,3.80
2022-08-28T17:29:14.605Z,4.00
2022-08-28T17:31:58.020Z,4.40
2022-08-28T17:34:41.229Z,4.10
2022-08-28T17:37:25.006Z,4.10
2022-08-28T17:40:11.902Z,4.50
2022-08-28T17:42:54.811Z,4.00
2022-08-28T17:45:37.915Z,4.30
2022-08-28T17:48:20.902Z,3.90
2022-08-28T17:51:05.901Z,3.90
2022-08-28T17:53:48.790Z,3.90
2022-08-28T17:56:35.837Z,3.40
2022-08-28T17:59:22.492Z,4.30
2022-08-28T18:02:05.754Z,3.60
2022-08-28T18:04:49.821Z,3.80
2022-08-28T18:07:32.766Z,3.50
2022-08-28T18:10:16.044Z,3.70
2022-08-28T18:13:00.407Z,3.30
2022-08-28T18:15:43.620Z,3.30
2022-08-28T18:18:32.294Z,2.90
2022-08-28T18:21:20.228Z,2.90
2022-08-28T18:24:03.723Z,2.90
2022-08-28T18:26:47.914Z,3.40
2022-08-28T18:29:34.643Z,3.60
2022-08-28T18:32:19.043Z,3.00
2022-08-28T18:35:01.947Z,3.20
2022-08-28T18:37:45.323Z,3.30
2022-08-28T18:40:29.069Z,2.90
2022-08-28T18:43:17.287Z,3.40
2022-08-28T18:46:01.988Z,3.50
2022-08-28T18:48:44.945Z,3.70
2022-08-28T18:51:32.422Z,3.80
2022-08-28T18:54:19.198Z,3.60
2022-08-28T18:57:05.682Z,3.40
2022-08-28T18:59:49.272Z,3.90
2022-08-28T19:02:32.339Z,4.10
2022-08-28T19:05:15.848Z,4.10
2022-08-28T19:07:58.936Z,4.00
2022-08-28T19:10:43.126Z,4.20
2022-08-28T19:13:28.026Z,3.70
2022-08-28T19:16:17.256Z,4.20
2022-08-28T19:19:02.051Z,4.30
2022-08-28T19:21:48.771Z,3.90
2022-08-28T19:24:33.852Z,4.60
2022-08-28T19:27:17.057Z,4.60
2022-08-28T19:30:00.153Z,5.00
2022-08-28T19:32:44.559Z,4.90
2022-08-28T19:35:27.951Z,4.80
2022-08-28T19:38:14.005Z,4.30
2022-08-28T19:40:57.688Z,4.50
2022-08-28T19:43:44.992Z,4.90
2022-08-28T19:46:28.258Z,4.70
2022-08-28T19:49:11.708Z,4.60
2022-08-28T19:51:55.063Z,5.50
2022-08-28T19:54:40.104Z,5.50
2022-08-28T19:57:23.141Z,4.70
2022-08-28T20:00:06.722Z,6.20
2022-08-28T20:02:52.539Z,4.50
2022-08-28T20:05:37.127Z,4.90
2022-08-28T20:08:24.892Z,4.90
2022-08-28T20:11:30.050Z,5.10
2022-08-28T20:14:14.959Z,5.30
2022-08-28T20:17:02.232Z,4.50
2022-08-28T20:19:48.419Z,5.00
2022-08-28T20:22:41.875Z,4.80
2022-08-28T20:25:28.114Z,5.00
2022-08-28T20:28:14.765Z,5.60
2022-08-28T20:31:08.607Z,5.60
2022-08-28T20:33:55.742Z,5.20
2022-08-28T20:36:39.172Z,5.10
2022-08-28T20:39:24.753Z,5.10
2022-08-28T20:42:11.790Z,5.10
2022-08-28T20:45:07.749Z,5.00
2022-08-28T20:47:55.082Z,5.10
2022-08-28T20:50:41.432Z,5.80
2022-08-28T20:53:36.832Z,6.00
2022-08-28T20:56:20.814Z,6.00
2022-08-28T20:59:04.468Z,5.50
2022-08-28T21:01:51.070Z,6.10
2022-08-28T21:04:36.289Z,6.00
2022-08-28T21:07:22.383Z,5.60
2022-08-28T21:10:07.876Z,5.70
2022-08-28T21:12:51.259Z,5.50
2022-08-28T21:15:35.501Z,5.30
2022-08-28T21:18:18.666Z,5.60
2022-08-28T21:21:06.385Z,5.70
2022-08-28T21:23:49.285Z,6.10
2022-08-28T21:26:32.656Z,5.70
2022-08-28T21:29:16.879Z,5.90
2022-08-28T21:31:59.829Z,5.90
2022-08-28T21:34:42.960Z,6.50
2022-08-28T21:37:26.078Z,5.90
2022-08-28T21:40:11.625Z,5.90
2022-08-28T21:42:54.421Z,6.30
2022-08-28T21:45:37.437Z,5.90
2022-08-28T21:48:20.394Z,6.50
2022-08-28T21:51:13.167Z,5.50
2022-08-28T21:53:56.161Z,6.30
2022-08-28T21:56:58.731Z,6.00
2022-08-28T21:59:43.453Z,7.30
2022-08-28T22:02:29.550Z,5.90
2022-08-28T22:05:15.717Z,6.30
2022-08-28T22:07:58.782Z,5.60
2022-08-28T22:10:45.433Z,6.10
2022-08-28T22:13:28.425Z,5.40
2022-08-28T22:16:11.927Z,6.00
2022-08-28T22:18:55.146Z,6.10
2022-08-28T22:21:57.012Z,6.60
2022-08-28T22:24:40.368Z,6.70
2022-08-28T22:27:23.674Z,5.90
2022-08-28T22:30:11.165Z,5.50
2022-08-28T22:32:57.926Z,6.00
2022-08-28T22:35:41.233Z,5.90
2022-08-28T22:38:25.689Z,5.80
2022-08-28T22:41:12.253Z,6.70
2022-08-28T22:43:55.695Z,6.30
2022-08-28T22:46:38.757Z,7.00
2022-08-28T22:49:22.126Z,6.20
2022-08-28T22:52:12.487Z,6.30
2022-08-28T22:54:55.701Z,7.00
2022-08-28T22:57:39.031Z,6.70
2022-08-28T23:00:25.404Z,6.80
2022-08-28T23:03:09.821Z,6.50
2022-08-28T23:05:53.177Z,6.80
2022-08-28T23:08:36.777Z,6.70
2022-08-28T23:11:19.763Z,6.80
2022-08-28T23:14:07.222Z,7.10
2022-08-28T23:16:50.695Z,6.80
2022-08-28T23:19:34.621Z,7.30
2022-08-28T23:22:17.905Z,6.50
2022-08-28T23:25:00.989Z,7.40
2022-08-28T23:27:45.125Z,7.00
2022-08-28T23:30:28.973Z,7.00
2022-08-28T23:33:23.171Z,6.30
2022-08-28T23:36:10.198Z,6.60
2022-08-28T23:38:55.674Z,6.50
2022-08-28T23:41:39.009Z,6.80
2022-08-28T23:44:24.248Z,6.50
2022-08-28T23:47:27.452Z,6.20
2022-08-28T23:50:19.132Z,6.60
2022-08-28T23:53:06.189Z,6.20
2022-08-28T23:55:51.338Z,6.70
2022-08-28T23:58:36.694Z,7.10
